createdAt,value
2018-04-15T00:00:17.428Z,1010.38
2018-04-15T00:00:43.591Z,1010.35
2018-04-15T00:01:09.730Z,1010.39
2018-04-15T00:01:35.901Z,1010.35
2018-04-15T00:02:02.104Z,1010.36
2018-04-15T00:02:28.285Z,1010.34
2018-04-15T00:02:54.438Z,1010.32
2018-04-15T00:03:20.620Z,1010.29
2018-04-15T00:03:46.907Z,1010.29
2018-04-15T00:04:13.046Z,1010.28
2018-04-15T00:04:39.182Z,1010.23
2018-04-15T00:05:05.390Z,1010.26
2018-04-15T00:05:31.525Z,1010.25
2018-04-15T00:05:57.741Z,1010.25
2018-04-15T00:06:23.895Z,1010.24
2018-04-15T00:06:50.046Z,1010.22
2018-04-15T00:07:16.234Z,1010.22
2018-04-15T00:07:42.392Z,1010.24
2018-04-15T00:08:08.525Z,1010.18
2018-04-15T00:08:34.703Z,1010.15
2018-04-15T00:09:00.870Z,1010.16
2018-04-15T00:09:27.029Z,1010.2
2018-04-15T00:09:53.175Z,1010.15
2018-04-15T00:10:19.315Z,1010.15
2018-04-15T00:10:45.473Z,1010.13
2018-04-15T00:11:11.645Z,1010.11
2018-04-15T00:11:37.805Z,1010.12
2018-04-15T00:12:03.947Z,1010.08
2018-04-15T00:12:30.105Z,1010.08
2018-04-15T00:12:56.267Z,1010.06
2018-04-15T00:13:22.406Z,1010.01
2018-04-15T00:13:48.546Z,1010.03
2018-04-15T00:14:14.682Z,1010.05
2018-04-15T00:14:40.819Z,1010.07
2018-04-15T00:15:06.960Z,1010.05
2018-04-15T00:15:33.165Z,1010.05
2018-04-15T00:15:59.374Z,1010.08
2018-04-15T00:16:25.818Z,1010.03
2018-04-15T00:16:51.942Z,1010.04
2018-04-15T00:17:18.087Z,1010.05
2018-04-15T00:17:44.224Z,1010.07
2018-04-15T00:18:10.379Z,1010.03
2018-04-15T00:18:36.520Z,1010.08
2018-04-15T00:19:02.691Z,1010.06
2018-04-15T00:19:28.892Z,1010.06
2018-04-15T00:19:55.045Z,1010.07
2018-04-15T00:20:21.231Z,1010.06
2018-04-15T00:20:47.594Z,1010.04
2018-04-15T00:21:13.759Z,1010.09
2018-04-15T00:21:39.895Z,1010.06
2018-04-15T00:22:06.078Z,1010.02
2018-04-15T00:22:32.284Z,1010.03
2018-04-15T00:22:58.412Z,1010.05
2018-04-15T00:23:24.556Z,1010.04
2018-04-15T00:23:50.692Z,1010.03
2018-04-15T00:24:16.824Z,1010.04
2018-04-15T00:24:43.018Z,1010.01
2018-04-15T00:25:09.163Z,1010
2018-04-15T00:25:35.308Z,1010
2018-04-15T00:26:01.480Z,1009.97
2018-04-15T00:26:27.582Z,1009.97
2018-04-15T00:26:53.760Z,1009.96
2018-04-15T00:27:19.905Z,1009.95
2018-04-15T00:27:46.070Z,1009.97
2018-04-15T00:28:12.308Z,1009.96
2018-04-15T00:28:38.420Z,1009.93
2018-04-15T00:29:04.624Z,1009.92
2018-04-15T00:29:30.819Z,1009.95
2018-04-15T00:29:56.942Z,1009.96
2018-04-15T00:30:23.085Z,1009.92
2018-04-15T00:30:49.252Z,1009.92
2018-04-15T00:31:15.435Z,1009.9
2018-04-15T00:31:41.606Z,1009.9
2018-04-15T00:32:07.779Z,1009.91
2018-04-15T00:32:33.928Z,1009.93
2018-04-15T00:33:00.114Z,1009.94
2018-04-15T00:33:26.250Z,1009.91
2018-04-15T00:33:52.390Z,1009.95
2018-04-15T00:34:18.532Z,1009.91
2018-04-15T00:34:44.668Z,1009.92
2018-04-15T00:35:10.978Z,1009.9
2018-04-15T00:35:37.105Z,1009.93
2018-04-15T00:36:03.258Z,1009.91
2018-04-15T00:36:29.399Z,1009.93
2018-04-15T00:36:55.534Z,1009.96
2018-04-15T00:37:21.685Z,1009.93
2018-04-15T00:37:47.822Z,1009.96
2018-04-15T00:38:13.991Z,1009.92
2018-04-15T00:38:40.126Z,1009.98
2018-04-15T00:39:06.304Z,1009.94
2018-04-15T00:39:32.497Z,1009.92
2018-04-15T00:39:58.633Z,1009.92
2018-04-15T00:40:24.772Z,1009.95
2018-04-15T00:40:52.152Z,1009.95
2018-04-15T00:41:18.297Z,1009.92
2018-04-15T00:41:44.473Z,1009.93
2018-04-15T00:42:10.651Z,1009.89
2018-04-15T00:42:36.790Z,1009.89
2018-04-15T00:43:02.930Z,1009.93
2018-04-15T00:43:29.068Z,1009.91
2018-04-15T00:43:55.214Z,1009.87
2018-04-15T00:44:21.373Z,1009.9
2018-04-15T00:44:47.497Z,1009.91
2018-04-15T00:45:13.657Z,1009.9
2018-04-15T00:45:39.806Z,1009.88
2018-04-15T00:46:05.952Z,1009.92
2018-04-15T00:46:32.103Z,1009.87
2018-04-15T00:46:58.246Z,1009.91
2018-04-15T00:47:24.413Z,1009.87
2018-04-15T00:47:50.574Z,1009.85
2018-04-15T00:48:16.722Z,1009.88
2018-04-15T00:48:42.855Z,1009.88
2018-04-15T00:49:08.995Z,1009.85
2018-04-15T00:49:35.158Z,1009.87
2018-04-15T00:50:01.296Z,1009.85
2018-04-15T00:50:27.458Z,1009.87
2018-04-15T00:50:53.602Z,1009.84
2018-04-15T00:51:19.733Z,1009.88
2018-04-15T00:51:45.875Z,1009.84
2018-04-15T00:52:12.023Z,1009.88
2018-04-15T00:52:38.155Z,1009.83
2018-04-15T00:53:04.321Z,1009.84
2018-04-15T00:53:30.459Z,1009.81
2018-04-15T00:53:56.611Z,1009.84
2018-04-15T00:54:22.745Z,1009.87
2018-04-15T00:54:48.908Z,1009.85
2018-04-15T00:55:15.045Z,1009.84
2018-04-15T00:55:41.183Z,1009.84
2018-04-15T00:56:07.322Z,1009.81
2018-04-15T00:56:33.457Z,1009.79
2018-04-15T00:56:59.600Z,1009.82
2018-04-15T00:57:25.763Z,1009.78
2018-04-15T00:57:51.901Z,1009.81
2018-04-15T00:58:18.069Z,1009.79
2018-04-15T00:58:44.211Z,1009.8
2018-04-15T00:59:10.372Z,1009.77
2018-04-15T00:59:36.507Z,1009.81
2018-04-15T01:00:02.646Z,1009.79
2018-04-15T01:00:28.788Z,1009.76
2018-04-15T01:00:54.937Z,1009.75
2018-04-15T01:01:21.076Z,1009.79
2018-04-15T01:01:47.241Z,1009.8
2018-04-15T01:02:13.383Z,1009.76
2018-04-15T01:02:39.550Z,1009.74
2018-04-15T01:03:05.696Z,1009.75
2018-04-15T01:03:31.853Z,1009.74
2018-04-15T01:03:57.994Z,1009.72
2018-04-15T01:04:24.182Z,1009.75
2018-04-15T01:04:50.382Z,1009.74
2018-04-15T01:05:16.523Z,1009.72
2018-04-15T01:05:42.659Z,1009.68
2018-04-15T01:06:08.793Z,1009.72
2018-04-15T01:06:34.933Z,1009.68
2018-04-15T01:07:01.075Z,1009.69
2018-04-15T01:07:27.207Z,1009.66
2018-04-15T01:07:53.349Z,1009.65
2018-04-15T01:08:19.516Z,1009.64
2018-04-15T01:08:45.669Z,1009.63
2018-04-15T01:09:11.821Z,1009.66
2018-04-15T01:09:37.955Z,1009.66
2018-04-15T01:10:04.099Z,1009.62
2018-04-15T01:10:30.242Z,1009.67
2018-04-15T01:10:56.379Z,1009.65
2018-04-15T01:11:22.518Z,1009.63
2018-04-15T01:11:48.670Z,1009.68
2018-04-15T01:12:14.821Z,1009.69
2018-04-15T01:12:41.004Z,1009.64
2018-04-15T01:13:07.146Z,1009.64
2018-04-15T01:13:33.285Z,1009.66
2018-04-15T01:13:59.426Z,1009.65
2018-04-15T01:14:25.618Z,1009.67
2018-04-15T01:14:51.719Z,1009.66
2018-04-15T01:15:17.860Z,1009.64
2018-04-15T01:15:44.005Z,1009.65
2018-04-15T01:16:10.191Z,1009.64
2018-04-15T01:16:36.329Z,1009.63
2018-04-15T01:17:02.492Z,1009.64
2018-04-15T01:17:28.638Z,1009.66
2018-04-15T01:17:54.795Z,1009.66
2018-04-15T01:18:20.957Z,1009.67
2018-04-15T01:18:47.091Z,1009.64
2018-04-15T01:19:13.230Z,1009.6
2018-04-15T01:19:39.389Z,1009.66
2018-04-15T01:20:05.529Z,1009.66
2018-04-15T01:20:31.672Z,1009.66
2018-04-15T01:20:57.817Z,1009.67
2018-04-15T01:21:23.945Z,1009.69
2018-04-15T01:21:50.086Z,1009.72
2018-04-15T01:22:16.228Z,1009.76
2018-04-15T01:22:42.366Z,1009.84
2018-04-15T01:23:08.503Z,1009.9
2018-04-15T01:23:34.641Z,1009.96
2018-04-15T01:24:00.782Z,1010.07
2018-04-15T01:24:26.919Z,1010.17
2018-04-15T01:24:53.058Z,1010.2
2018-04-15T01:25:19.201Z,1010.24
2018-04-15T01:25:45.338Z,1010.25
2018-04-15T01:26:11.478Z,1010.22
2018-04-15T01:26:37.638Z,1010.27
2018-04-15T01:27:03.780Z,1010.18
2018-04-15T01:27:29.918Z,1010.11
2018-04-15T01:27:56.080Z,1010.04
2018-04-15T01:28:22.221Z,1010.02
2018-04-15T01:28:48.358Z,1010.01
2018-04-15T01:29:14.491Z,1010.03
2018-04-15T01:29:40.641Z,1009.94
2018-04-15T01:30:06.775Z,1010.04
2018-04-15T01:30:32.923Z,1010
2018-04-15T01:30:59.085Z,1010.02
2018-04-15T01:31:25.226Z,1010.02
2018-04-15T01:31:51.359Z,1010.04
2018-04-15T01:32:17.507Z,1010.05
2018-04-15T01:32:43.640Z,1010.05
2018-04-15T01:33:09.781Z,1010.02
2018-04-15T01:33:35.919Z,1010.04
2018-04-15T01:34:02.055Z,1010.02
2018-04-15T01:34:28.215Z,1010.05
2018-04-15T01:34:54.362Z,1010.01
2018-04-15T01:35:20.492Z,1010.01
2018-04-15T01:35:46.635Z,1010.04
2018-04-15T01:36:12.780Z,1010.05
2018-04-15T01:36:38.907Z,1009.99
2018-04-15T01:37:05.058Z,1010
2018-04-15T01:37:31.217Z,1010
2018-04-15T01:37:57.357Z,1009.99
2018-04-15T01:38:23.485Z,1010.02
2018-04-15T01:38:49.632Z,1009.98
2018-04-15T01:39:15.773Z,1009.98
2018-04-15T01:39:41.910Z,1009.99
2018-04-15T01:40:08.073Z,1009.99
2018-04-15T01:40:34.210Z,1009.98
2018-04-15T01:41:00.351Z,1009.96
2018-04-15T01:41:26.496Z,1009.97
2018-04-15T01:41:52.635Z,1009.98
2018-04-15T01:42:18.770Z,1009.96
2018-04-15T01:42:44.926Z,1009.95
2018-04-15T01:43:11.093Z,1009.9
2018-04-15T01:43:37.255Z,1009.96
2018-04-15T01:44:03.394Z,1009.94
2018-04-15T01:44:29.536Z,1009.95
2018-04-15T01:44:55.672Z,1009.95
2018-04-15T01:45:21.811Z,1009.94
2018-04-15T01:45:47.957Z,1009.92
2018-04-15T01:46:14.117Z,1009.95
2018-04-15T01:46:40.259Z,1009.92
2018-04-15T01:47:06.403Z,1009.94
2018-04-15T01:47:32.541Z,1009.92
2018-04-15T01:47:58.681Z,1009.92
2018-04-15T01:48:24.817Z,1009.94
2018-04-15T01:48:50.956Z,1009.91
2018-04-15T01:49:17.094Z,1009.89
2018-04-15T01:49:43.230Z,1009.89
2018-04-15T01:50:09.393Z,1009.89
2018-04-15T01:50:35.538Z,1009.84
2018-04-15T01:51:01.672Z,1009.87
2018-04-15T01:51:27.815Z,1009.87
2018-04-15T01:51:53.952Z,1009.86
2018-04-15T01:52:20.096Z,1009.84
2018-04-15T01:52:46.235Z,1009.83
2018-04-15T01:53:12.379Z,1009.8
2018-04-15T01:53:38.518Z,1009.78
2018-04-15T01:54:04.678Z,1009.78
2018-04-15T01:54:30.815Z,1009.81
2018-04-15T01:54:56.962Z,1009.8
2018-04-15T01:55:23.101Z,1009.81
2018-04-15T01:55:49.239Z,1009.75
2018-04-15T01:56:15.379Z,1009.77
2018-04-15T01:56:41.543Z,1009.77
2018-04-15T01:57:07.709Z,1009.74
2018-04-15T01:57:33.843Z,1009.79
2018-04-15T01:58:00.011Z,1009.75
2018-04-15T01:58:26.152Z,1009.72
2018-04-15T01:58:52.293Z,1009.72
2018-04-15T01:59:18.423Z,1009.76
2018-04-15T01:59:44.563Z,1009.75
2018-04-15T02:00:10.701Z,1009.73
2018-04-15T02:00:36.846Z,1009.72
2018-04-15T02:01:02.986Z,1009.74
2018-04-15T02:01:29.197Z,1009.76
2018-04-15T02:01:55.332Z,1009.74
2018-04-15T02:02:21.467Z,1009.74
2018-04-15T02:02:47.610Z,1009.76
2018-04-15T02:03:13.744Z,1009.76
2018-04-15T02:03:39.882Z,1009.78
2018-04-15T02:04:06.024Z,1009.77
2018-04-15T02:04:32.178Z,1009.78
2018-04-15T02:04:58.320Z,1009.79
2018-04-15T02:05:24.461Z,1009.79
2018-04-15T02:05:50.602Z,1009.82
2018-04-15T02:06:16.740Z,1009.8
2018-04-15T02:06:42.884Z,1009.78
2018-04-15T02:07:09.023Z,1009.76
2018-04-15T02:07:35.164Z,1009.77
2018-04-15T02:08:01.298Z,1009.75
2018-04-15T02:08:27.443Z,1009.76
2018-04-15T02:08:53.591Z,1009.73
2018-04-15T02:09:19.727Z,1009.73
2018-04-15T02:09:45.862Z,1009.72
2018-04-15T02:10:12.006Z,1009.74
2018-04-15T02:10:38.151Z,1009.73
2018-04-15T02:11:04.278Z,1009.72
2018-04-15T02:11:30.443Z,1009.72
2018-04-15T02:11:56.562Z,1009.7
2018-04-15T02:12:22.703Z,1009.74
2018-04-15T02:12:48.841Z,1009.73
2018-04-15T02:13:14.983Z,1009.71
2018-04-15T02:13:41.116Z,1009.72
2018-04-15T02:14:07.281Z,1009.71
2018-04-15T02:14:33.411Z,1009.71
2018-04-15T02:14:59.548Z,1009.68
2018-04-15T02:15:25.696Z,1009.68
2018-04-15T02:15:51.839Z,1009.62
2018-04-15T02:16:18.003Z,1009.63
2018-04-15T02:16:44.136Z,1009.66
2018-04-15T02:17:10.275Z,1009.61
2018-04-15T02:17:36.416Z,1009.62
2018-04-15T02:18:02.555Z,1009.64
2018-04-15T02:18:28.717Z,1009.62
2018-04-15T02:18:54.858Z,1009.61
2018-04-15T02:19:21.019Z,1009.59
2018-04-15T02:19:47.153Z,1009.6
2018-04-15T02:20:13.292Z,1009.58
2018-04-15T02:20:39.432Z,1009.59
2018-04-15T02:21:05.571Z,1009.57
2018-04-15T02:21:31.742Z,1009.58
2018-04-15T02:21:57.875Z,1009.57
2018-04-15T02:22:24.058Z,1009.58
2018-04-15T02:22:50.220Z,1009.56
2018-04-15T02:23:16.366Z,1009.54
2018-04-15T02:23:42.487Z,1009.53
2018-04-15T02:24:08.656Z,1009.53
2018-04-15T02:24:34.800Z,1009.55
2018-04-15T02:25:00.929Z,1009.54
2018-04-15T02:25:27.077Z,1009.49
2018-04-15T02:25:53.216Z,1009.49
2018-04-15T02:26:19.362Z,1009.51
2018-04-15T02:26:45.520Z,1009.53
2018-04-15T02:27:11.684Z,1009.52
2018-04-15T02:27:37.823Z,1009.48
2018-04-15T02:28:03.979Z,1009.5
2018-04-15T02:28:30.120Z,1009.49
2018-04-15T02:28:56.294Z,1009.52
2018-04-15T02:29:22.430Z,1009.5
2018-04-15T02:29:48.634Z,1009.5
2018-04-15T02:30:14.752Z,1009.48
2018-04-15T02:30:40.894Z,1009.48
2018-04-15T02:31:07.032Z,1009.48
2018-04-15T02:31:33.169Z,1009.44
2018-04-15T02:31:59.315Z,1009.4
2018-04-15T02:32:25.481Z,1009.42
2018-04-15T02:32:51.621Z,1009.45
2018-04-15T02:33:17.779Z,1009.42
2018-04-15T02:33:43.961Z,1009.4
2018-04-15T02:34:10.174Z,1009.37
2018-04-15T02:34:36.310Z,1009.42
2018-04-15T02:35:02.454Z,1009.35
2018-04-15T02:35:28.589Z,1009.36
2018-04-15T02:35:54.804Z,1009.37
2018-04-15T02:36:20.942Z,1009.33
2018-04-15T02:36:47.087Z,1009.34
2018-04-15T02:37:13.223Z,1009.32
2018-04-15T02:37:39.374Z,1009.33
2018-04-15T02:38:05.535Z,1009.3
2018-04-15T02:38:31.677Z,1009.33
2018-04-15T02:38:57.863Z,1009.34
2018-04-15T02:39:24.023Z,1009.32
2018-04-15T02:39:50.177Z,1009.32
2018-04-15T02:40:16.357Z,1009.31
2018-04-15T02:40:42.503Z,1009.33
2018-04-15T02:41:08.638Z,1009.31
2018-04-15T02:41:34.781Z,1009.32
2018-04-15T02:42:00.924Z,1009.31
2018-04-15T02:42:27.087Z,1009.31
2018-04-15T02:42:53.244Z,1009.29
2018-04-15T02:43:19.415Z,1009.29
2018-04-15T02:43:45.556Z,1009.25
2018-04-15T02:44:11.743Z,1009.25
2018-04-15T02:44:37.935Z,1009.26
2018-04-15T02:45:04.125Z,1009.25
2018-04-15T02:45:30.288Z,1009.33
2018-04-15T02:45:56.507Z,1009.29
2018-04-15T02:46:22.668Z,1009.28
2018-04-15T02:46:48.853Z,1009.28
2018-04-15T02:47:14.991Z,1009.22
2018-04-15T02:47:41.158Z,1009.22
2018-04-15T02:48:07.326Z,1009.21
2018-04-15T02:48:33.487Z,1009.24
2018-04-15T02:48:59.655Z,1009.23
2018-04-15T02:49:25.836Z,1009.22
2018-04-15T02:49:52.021Z,1009.18
2018-04-15T02:50:18.162Z,1009.22
2018-04-15T02:50:44.297Z,1009.19
2018-04-15T02:51:10.464Z,1009.2
2018-04-15T02:51:36.622Z,1009.2
2018-04-15T02:52:02.762Z,1009.21
2018-04-15T02:52:28.930Z,1009.2
2018-04-15T02:52:55.086Z,1009.18
2018-04-15T02:53:21.225Z,1009.19
2018-04-15T02:53:47.392Z,1009.18
2018-04-15T02:54:13.532Z,1009.17
2018-04-15T02:54:39.697Z,1009.15
2018-04-15T02:55:05.842Z,1009.12
2018-04-15T02:55:31.996Z,1009.16
2018-04-15T02:55:58.191Z,1009.1
2018-04-15T02:56:24.348Z,1009.13
2018-04-15T02:56:50.489Z,1009.15
2018-04-15T02:57:16.616Z,1009.14
2018-04-15T02:57:42.773Z,1009.11
2018-04-15T02:58:08.966Z,1009.16
2018-04-15T02:58:35.144Z,1009.16
2018-04-15T02:59:01.302Z,1009.11
2018-04-15T02:59:27.463Z,1009.1
2018-04-15T02:59:53.656Z,1009.14
2018-04-15T03:00:19.809Z,1009.12
2018-04-15T03:00:45.986Z,1009.13
2018-04-15T03:01:12.140Z,1009.11
2018-04-15T03:01:38.328Z,1009.09
2018-04-15T03:02:04.470Z,1009.14
2018-04-15T03:02:30.635Z,1009.13
2018-04-15T03:02:56.832Z,1009.11
2018-04-15T03:03:23.005Z,1009.11
2018-04-15T03:03:49.148Z,1009.1
2018-04-15T03:04:15.279Z,1009.09
2018-04-15T03:04:41.417Z,1009.08
2018-04-15T03:05:07.577Z,1009.06
2018-04-15T03:05:33.722Z,1009.06
2018-04-15T03:05:59.888Z,1009.07
2018-04-15T03:06:26.025Z,1009.11
2018-04-15T03:06:52.161Z,1009.09
2018-04-15T03:07:18.331Z,1009.1
2018-04-15T03:07:44.495Z,1009.11
2018-04-15T03:08:10.642Z,1009.11
2018-04-15T03:08:36.845Z,1009.15
2018-04-15T03:09:02.980Z,1009.11
2018-04-15T03:09:29.123Z,1009.16
2018-04-15T03:09:55.311Z,1009.13
2018-04-15T03:10:21.450Z,1009.14
2018-04-15T03:10:47.638Z,1009.16
2018-04-15T03:11:13.794Z,1009.16
2018-04-15T03:11:39.960Z,1009.15
2018-04-15T03:12:06.095Z,1009.16
2018-04-15T03:12:32.263Z,1009.16
2018-04-15T03:12:58.402Z,1009.13
2018-04-15T03:13:24.536Z,1009.13
2018-04-15T03:13:50.680Z,1009.14
2018-04-15T03:14:16.824Z,1009.16
2018-04-15T03:14:42.959Z,1009.14
2018-04-15T03:15:09.100Z,1009.11
2018-04-15T03:15:35.262Z,1009.12
2018-04-15T03:16:01.403Z,1009.13
2018-04-15T03:16:27.539Z,1009.12
2018-04-15T03:16:53.704Z,1009.1
2018-04-15T03:17:19.841Z,1009.1
2018-04-15T03:17:46.006Z,1009.09
2018-04-15T03:18:12.143Z,1009.09
2018-04-15T03:18:38.282Z,1009.12
2018-04-15T03:19:04.418Z,1009.14
2018-04-15T03:19:30.556Z,1009.11
2018-04-15T03:19:56.694Z,1009.12
2018-04-15T03:20:22.840Z,1009.1
2018-04-15T03:20:48.970Z,1009.11
2018-04-15T03:21:15.114Z,1009.1
2018-04-15T03:21:41.253Z,1009.12
2018-04-15T03:22:07.398Z,1009.09
2018-04-15T03:22:33.560Z,1009.05
2018-04-15T03:22:59.696Z,1009.07
2018-04-15T03:23:25.841Z,1009.09
2018-04-15T03:23:51.976Z,1009.06
2018-04-15T03:24:18.113Z,1009.06
2018-04-15T03:24:44.248Z,1009.1
2018-04-15T03:25:10.400Z,1009.1
2018-04-15T03:25:36.544Z,1009.06
2018-04-15T03:26:02.699Z,1009.1
2018-04-15T03:26:28.861Z,1009.09
2018-04-15T03:26:55.025Z,1009.11
2018-04-15T03:27:21.168Z,1009.1
2018-04-15T03:27:47.305Z,1009.15
2018-04-15T03:28:13.444Z,1009.1
2018-04-15T03:28:39.581Z,1009.11
2018-04-15T03:29:05.716Z,1009.13
2018-04-15T03:29:31.855Z,1009.08
2018-04-15T03:29:58.017Z,1009.11
2018-04-15T03:30:24.237Z,1009.07
2018-04-15T03:30:50.396Z,1009.1
2018-04-15T03:31:16.594Z,1009.11
2018-04-15T03:31:42.792Z,1009.09
2018-04-15T03:32:08.963Z,1009.07
2018-04-15T03:32:35.120Z,1009.15
2018-04-15T03:33:01.259Z,1009.09
2018-04-15T03:33:27.395Z,1009.1
2018-04-15T03:33:53.539Z,1009.1
2018-04-15T03:34:19.684Z,1009.1
2018-04-15T03:34:45.821Z,1009.12
2018-04-15T03:35:11.965Z,1009.08
2018-04-15T03:35:38.101Z,1009.11
2018-04-15T03:36:04.237Z,1009.09
2018-04-15T03:36:30.377Z,1009.13
2018-04-15T03:36:56.517Z,1009.11
2018-04-15T03:37:22.706Z,1009.11
2018-04-15T03:37:48.842Z,1009.1
2018-04-15T03:38:14.982Z,1009.13
2018-04-15T03:38:41.153Z,1009.09
2018-04-15T03:39:07.290Z,1009.13
2018-04-15T03:39:33.426Z,1009.12
2018-04-15T03:39:59.564Z,1009.12
2018-04-15T03:40:25.736Z,1009.12
2018-04-15T03:40:51.867Z,1009.12
2018-04-15T03:41:18.006Z,1009.12
2018-04-15T03:41:44.147Z,1009.11
2018-04-15T03:42:10.315Z,1009.08
2018-04-15T03:42:36.475Z,1009.08
2018-04-15T03:43:02.614Z,1009.12
2018-04-15T03:43:28.755Z,1009.11
2018-04-15T03:43:54.896Z,1009.1
2018-04-15T03:44:21.029Z,1009.1
2018-04-15T03:44:47.164Z,1009.11
2018-04-15T03:45:13.308Z,1009.11
2018-04-15T03:45:39.460Z,1009.1
2018-04-15T03:46:05.614Z,1009.1
2018-04-15T03:46:31.750Z,1009.08
2018-04-15T03:46:57.887Z,1009.1
2018-04-15T03:47:24.051Z,1009.11
2018-04-15T03:47:50.216Z,1009.07
2018-04-15T03:48:16.376Z,1009.07
2018-04-15T03:48:42.513Z,1009.06
2018-04-15T03:49:08.656Z,1009.09
2018-04-15T03:49:34.784Z,1009.12
2018-04-15T03:50:00.930Z,1009.09
2018-04-15T03:50:27.113Z,1009.09
2018-04-15T03:50:53.238Z,1009.12
2018-04-15T03:51:19.374Z,1009.1
2018-04-15T03:51:45.518Z,1009.11
2018-04-15T03:52:11.647Z,1009.1
2018-04-15T03:52:37.793Z,1009.08
2018-04-15T03:53:03.931Z,1009.09
2018-04-15T03:53:30.114Z,1009.11
2018-04-15T03:53:56.256Z,1009.1
2018-04-15T03:54:22.423Z,1009.1
2018-04-15T03:54:48.607Z,1009.09
2018-04-15T03:55:14.752Z,1009.11
2018-04-15T03:55:40.891Z,1009.07
2018-04-15T03:56:07.056Z,1009.08
2018-04-15T03:56:33.191Z,1009.09
2018-04-15T03:56:59.336Z,1009.11
2018-04-15T03:57:25.472Z,1009.1
2018-04-15T03:57:51.615Z,1009.11
2018-04-15T03:58:17.748Z,1009.1
2018-04-15T03:58:43.896Z,1009.11
2018-04-15T03:59:10.032Z,1009.12
2018-04-15T03:59:36.170Z,1009.09
2018-04-15T04:00:02.310Z,1009.09
2018-04-15T04:00:28.454Z,1009.11
2018-04-15T04:00:54.589Z,1009.1
2018-04-15T04:01:20.746Z,1009.12
2018-04-15T04:01:46.887Z,1009.11
2018-04-15T04:02:13.027Z,1009.08
2018-04-15T04:02:39.192Z,1009.07
2018-04-15T04:03:05.335Z,1009.11
2018-04-15T04:03:31.474Z,1009.11
2018-04-15T04:03:57.606Z,1009.08
2018-04-15T04:04:23.748Z,1009.06
2018-04-15T04:04:49.884Z,1009.07
2018-04-15T04:05:16.032Z,1009.1
2018-04-15T04:05:42.169Z,1009.11
2018-04-15T04:06:08.306Z,1009.14
2018-04-15T04:06:34.449Z,1009.11
2018-04-15T04:07:00.588Z,1009.12
2018-04-15T04:07:26.730Z,1009.16
2018-04-15T04:07:52.863Z,1009.18
2018-04-15T04:08:18.997Z,1009.16
2018-04-15T04:08:45.143Z,1009.17
2018-04-15T04:09:11.287Z,1009.14
2018-04-15T04:09:37.423Z,1009.13
2018-04-15T04:10:03.561Z,1009.15
2018-04-15T04:10:29.699Z,1009.15
2018-04-15T04:10:55.836Z,1009.12
2018-04-15T04:11:21.995Z,1009.12
2018-04-15T04:11:48.148Z,1009.13
2018-04-15T04:12:14.275Z,1009.13
2018-04-15T04:12:40.442Z,1009.14
2018-04-15T04:13:06.584Z,1009.14
2018-04-15T04:13:32.721Z,1009.14
2018-04-15T04:13:58.857Z,1009.15
2018-04-15T04:14:24.989Z,1009.11
2018-04-15T04:14:51.124Z,1009.12
2018-04-15T04:15:17.268Z,1009.13
2018-04-15T04:15:43.406Z,1009.12
2018-04-15T04:16:09.568Z,1009.1
2018-04-15T04:16:35.703Z,1009.15
2018-04-15T04:17:01.849Z,1009.16
2018-04-15T04:17:27.986Z,1009.14
2018-04-15T04:17:54.132Z,1009.16
2018-04-15T04:18:20.268Z,1009.15
2018-04-15T04:18:46.401Z,1009.18
2018-04-15T04:19:12.542Z,1009.2
2018-04-15T04:19:38.679Z,1009.16
2018-04-15T04:20:04.841Z,1009.18
2018-04-15T04:20:30.980Z,1009.2
2018-04-15T04:20:57.146Z,1009.2
2018-04-15T04:21:23.318Z,1009.2
2018-04-15T04:21:49.441Z,1009.21
2018-04-15T04:22:15.583Z,1009.2
2018-04-15T04:22:41.719Z,1009.22
2018-04-15T04:23:07.863Z,1009.19
2018-04-15T04:23:33.996Z,1009.17
2018-04-15T04:24:00.137Z,1009.16
2018-04-15T04:24:26.298Z,1009.13
2018-04-15T04:24:52.435Z,1009.13
2018-04-15T04:25:18.570Z,1009.11
2018-04-15T04:25:44.711Z,1009.08
2018-04-15T04:26:10.850Z,1009.07
2018-04-15T04:26:36.997Z,1009.08
2018-04-15T04:27:03.129Z,1009.06
2018-04-15T04:27:29.276Z,1009.09
2018-04-15T04:27:55.411Z,1009.07
2018-04-15T04:28:21.545Z,1009.07
2018-04-15T04:28:47.713Z,1009.14
2018-04-15T04:29:13.853Z,1009.11
2018-04-15T04:29:39.993Z,1009.1
2018-04-15T04:30:06.134Z,1009.11
2018-04-15T04:30:32.271Z,1009.11
2018-04-15T04:30:58.414Z,1009.11
2018-04-15T04:31:24.558Z,1009.11
2018-04-15T04:31:50.704Z,1009.12
2018-04-15T04:32:16.898Z,1009.1
2018-04-15T04:32:43.037Z,1009.11
2018-04-15T04:33:09.223Z,1009.09
2018-04-15T04:33:35.387Z,1009.06
2018-04-15T04:34:01.525Z,1009.09
2018-04-15T04:34:27.664Z,1009.09
2018-04-15T04:34:53.824Z,1009.08
2018-04-15T04:35:19.961Z,1009.07
2018-04-15T04:35:46.102Z,1009.05
2018-04-15T04:36:12.264Z,1009.06
2018-04-15T04:36:38.411Z,1009.07
2018-04-15T04:37:04.548Z,1009.07
2018-04-15T04:37:30.684Z,1009.05
2018-04-15T04:37:56.830Z,1009.12
2018-04-15T04:38:22.964Z,1009.08
2018-04-15T04:38:49.122Z,1009.05
2018-04-15T04:39:15.256Z,1009.09
2018-04-15T04:39:41.396Z,1009.08
2018-04-15T04:40:07.560Z,1009.08
2018-04-15T04:40:33.695Z,1009.03
2018-04-15T04:40:59.834Z,1009.06
2018-04-15T04:41:25.973Z,1009.04
2018-04-15T04:41:52.143Z,1009.01
2018-04-15T04:42:18.311Z,1009.03
2018-04-15T04:42:44.467Z,1009.03
2018-04-15T04:43:10.597Z,1009.03
2018-04-15T04:43:36.760Z,1009.03
2018-04-15T04:44:02.904Z,1009.02
2018-04-15T04:44:29.043Z,1009.04
2018-04-15T04:44:55.196Z,1009.01
2018-04-15T04:45:21.320Z,1009.02
2018-04-15T04:45:47.480Z,1009.02
2018-04-15T04:46:13.620Z,1009.02
2018-04-15T04:46:39.810Z,1009.03
2018-04-15T04:47:05.941Z,1009.01
2018-04-15T04:47:32.107Z,1009
2018-04-15T04:47:58.244Z,1009.01
2018-04-15T04:48:24.409Z,1009.01
2018-04-15T04:48:50.546Z,1009.01
2018-04-15T04:49:16.705Z,1009.02
2018-04-15T04:49:42.848Z,1008.98
2018-04-15T04:50:08.995Z,1008.99
2018-04-15T04:50:35.133Z,1009.03
2018-04-15T04:51:01.267Z,1008.99
2018-04-15T04:51:27.406Z,1009.02
2018-04-15T04:51:53.547Z,1008.98
2018-04-15T04:52:19.682Z,1009.03
2018-04-15T04:52:45.814Z,1009.02
2018-04-15T04:53:11.959Z,1008.99
2018-04-15T04:53:38.104Z,1009.04
2018-04-15T04:54:04.241Z,1009.02
2018-04-15T04:54:30.400Z,1009.05
2018-04-15T04:54:56.538Z,1009.06
2018-04-15T04:55:22.675Z,1009.04
2018-04-15T04:55:48.806Z,1009.07
2018-04-15T04:56:14.972Z,1009.04
2018-04-15T04:56:41.126Z,1009.09
2018-04-15T04:57:07.262Z,1009.07
2018-04-15T04:57:33.399Z,1009.05
2018-04-15T04:57:59.543Z,1009.05
2018-04-15T04:58:25.677Z,1009.04
2018-04-15T04:58:51.813Z,1009.04
2018-04-15T04:59:17.951Z,1009.05
2018-04-15T04:59:44.094Z,1009.06
2018-04-15T05:00:10.233Z,1009.05
2018-04-15T05:00:36.373Z,1009.06
2018-04-15T05:01:02.509Z,1009.07
2018-04-15T05:01:28.690Z,1009.04
2018-04-15T05:01:54.831Z,1009.06
2018-04-15T05:02:21.020Z,1009.04
2018-04-15T05:02:47.153Z,1009.05
2018-04-15T05:03:13.290Z,1009.05
2018-04-15T05:03:39.423Z,1009.08
2018-04-15T05:04:05.559Z,1009.05
2018-04-15T05:04:31.700Z,1009.04
2018-04-15T05:04:57.845Z,1009.05
2018-04-15T05:05:23.974Z,1009.04
2018-04-15T05:05:50.115Z,1009.05
2018-04-15T05:06:16.273Z,1009.06
2018-04-15T05:06:42.414Z,1009.04
2018-04-15T05:07:08.572Z,1009.07
2018-04-15T05:07:34.753Z,1009.04
2018-04-15T05:08:00.879Z,1009.04
2018-04-15T05:08:27.031Z,1009.04
2018-04-15T05:08:53.191Z,1009.01
2018-04-15T05:09:19.326Z,1009
2018-04-15T05:09:45.482Z,1008.97
2018-04-15T05:10:11.604Z,1009.04
2018-04-15T05:10:37.746Z,1009.05
2018-04-15T05:11:03.889Z,1009.05
2018-04-15T05:11:30.025Z,1009.02
2018-04-15T05:11:56.164Z,1009.04
2018-04-15T05:12:22.306Z,1009.05
2018-04-15T05:12:48.444Z,1009.03
2018-04-15T05:13:14.594Z,1009.06
2018-04-15T05:13:40.719Z,1009.04
2018-04-15T05:14:06.860Z,1009.08
2018-04-15T05:14:32.998Z,1009.09
2018-04-15T05:14:59.141Z,1009.05
2018-04-15T05:15:25.278Z,1009.03
2018-04-15T05:15:51.419Z,1009.08
2018-04-15T05:16:17.564Z,1009.13
2018-04-15T05:16:43.705Z,1009.15
2018-04-15T05:17:09.874Z,1009.12
2018-04-15T05:17:35.978Z,1009.14